createdAt,value
2018-04-27T00:02:19.850Z,77.61
2018-04-27T00:05:23.101Z,77.40
2018-04-27T00:08:26.350Z,77.72
2018-04-27T00:11:29.623Z,78.48
2018-04-27T00:14:32.882Z,78.44
2018-04-27T00:17:36.132Z,77.55
2018-04-27T00:20:39.432Z,77.93
2018-04-27T00:23:42.685Z,78.39
2018-04-27T00:26:46.710Z,77.98
2018-04-27T00:29:50.725Z,78.82
2018-04-27T00:32:54.859Z,78.31
2018-04-27T00:35:58.123Z,78.45
2018-04-27T00:39:01.382Z,78.98
2018-04-27T00:42:04.638Z,78.76
2018-04-27T00:45:08.678Z,78.67
2018-04-27T00:48:11.964Z,78.43
2018-04-27T00:51:15.263Z,79.08
2018-04-27T00:54:18.502Z,78.91
2018-04-27T00:57:21.766Z,78.26
2018-04-27T01:00:25.016Z,78.54
2018-04-27T01:03:28.620Z,78.73
2018-04-27T01:06:31.865Z,79.32
2018-04-27T01:09:35.134Z,78.30
2018-04-27T01:12:39.236Z,78.02
2018-04-27T01:15:42.482Z,77.85
2018-04-27T01:18:45.751Z,78.33
2018-04-27T01:21:49.802Z,78.12
2018-04-27T01:24:53.060Z,77.92
2018-04-27T01:27:57.581Z,78.05
2018-04-27T01:31:01.591Z,78.33
2018-04-27T01:34:04.888Z,78.33
2018-04-27T01:37:08.199Z,78.44
2018-04-27T01:40:11.486Z,78.30
2018-04-27T01:43:15.506Z,78.63
2018-04-27T01:46:19.510Z,78.54
2018-04-27T01:49:22.787Z,78.62
2018-04-27T01:52:26.037Z,78.42
2018-04-27T01:55:29.345Z,78.84
2018-04-27T01:58:32.593Z,78.54
2018-04-27T02:01:35.850Z,78.21
2018-04-27T02:04:39.114Z,78.44
2018-04-27T02:07:43.130Z,78.95
2018-04-27T02:10:46.375Z,79.15
2018-04-27T02:13:49.645Z,79.09
2018-04-27T02:16:52.890Z,79.31
2018-04-27T02:19:56.140Z,79.14
2018-04-27T02:22:59.411Z,79.30
2018-04-27T02:26:03.420Z,78.95
2018-04-27T02:29:07.453Z,79.34
2018-04-27T02:32:11.497Z,79.37
2018-04-27T02:35:14.759Z,78.79
2018-04-27T02:38:18.045Z,78.53
2018-04-27T02:41:22.044Z,79.24
2018-04-27T02:44:25.339Z,78.97
2018-04-27T02:47:28.553Z,78.47
2018-04-27T02:50:32.566Z,78.40
2018-04-27T02:53:36.587Z,78.44
2018-04-27T02:56:40.622Z,78.70
2018-04-27T02:59:43.862Z,78.45
2018-04-27T03:02:47.117Z,78.27
2018-04-27T03:05:50.366Z,78.80
2018-04-27T03:08:53.614Z,78.47
2018-04-27T03:11:57.754Z,78.55
2018-04-27T03:15:01.002Z,78.84
2018-04-27T03:18:05.019Z,78.92
2018-04-27T03:21:09.023Z,78.48
2018-04-27T03:24:12.279Z,78.67
2018-04-27T03:27:15.528Z,78.63
2018-04-27T03:30:18.795Z,79.06
2018-04-27T03:33:22.049Z,78.95
2018-04-27T03:36:25.321Z,78.85
2018-04-27T03:39:29.354Z,78.73
2018-04-27T03:42:32.625Z,78.60
2018-04-27T03:45:36.646Z,78.78
2018-04-27T03:48:40.751Z,78.84
2018-04-27T03:51:45.811Z,79.50
2018-04-27T03:54:49.063Z,79.12
2018-04-27T03:57:52.313Z,79.12
2018-04-27T04:01:13.201Z,79.16
2018-04-27T04:04:35.200Z,79.44
2018-04-27T04:07:38.465Z,79.85
2018-04-27T04:10:41.821Z,79.55
2018-04-27T04:13:45.070Z,79.06
2018-04-27T04:16:48.317Z,79.14
2018-04-27T04:19:52.449Z,79.42
2018-04-27T04:22:57.706Z,79.65
2018-04-27T04:26:03.455Z,79.73
2018-04-27T04:29:06.794Z,80.20
2018-04-27T04:32:10.039Z,79.45
2018-04-27T04:35:13.348Z,79.49
2018-04-27T04:38:16.686Z,79.25
2018-04-27T04:41:36.178Z,79.22
2018-04-27T04:44:40.759Z,79.55
2018-04-27T04:47:44.030Z,79.64
2018-04-27T04:50:47.388Z,79.65
2018-04-27T04:53:51.403Z,79.28
2018-04-27T04:56:55.424Z,78.86
2018-04-27T04:59:58.699Z,78.64
2018-04-27T05:03:02.796Z,79.22
2018-04-27T05:06:06.771Z,79.41
2018-04-27T05:09:10.054Z,78.72
2018-04-27T05:12:13.386Z,78.16
2018-04-27T05:15:16.681Z,77.95
2018-04-27T05:19:10.097Z,76.72
2018-04-27T05:22:14.217Z,77.37
2018-04-27T05:25:18.240Z,76.67
2018-04-27T05:28:22.373Z,77.62
2018-04-27T05:31:26.439Z,76.48
2018-04-27T05:34:38.944Z,77.19
2018-04-27T05:37:42.718Z,76.85
2018-04-27T05:40:45.987Z,76.88
2018-04-27T05:43:50.035Z,75.96
2018-04-27T05:46:53.435Z,73.81
2018-04-27T05:49:56.713Z,68.88
2018-04-27T05:53:00.748Z,65.86
2018-04-27T05:56:04.041Z,61.60
2018-04-27T05:59:07.298Z,58.95
2018-04-27T06:02:10.544Z,58.29
2018-04-27T06:05:13.881Z,59.90
2018-04-27T06:08:17.831Z,57.27
2018-04-27T06:11:21.869Z,59.11
2018-04-27T06:14:25.146Z,58.99
2018-04-27T06:17:29.171Z,56.65
2018-04-27T06:20:32.441Z,56.81
2018-04-27T06:23:36.509Z,57.36
2018-04-27T06:26:39.776Z,58.04
2018-04-27T06:29:43.108Z,56.01
2018-04-27T06:32:46.402Z,55.29
2018-04-27T06:35:49.670Z,57.83
2018-04-27T06:38:52.949Z,59.64
2018-04-27T06:41:57.031Z,60.60
2018-04-27T06:45:00.366Z,60.17
2018-04-27T06:48:04.385Z,59.15
2018-04-27T06:51:08.411Z,58.98
2018-04-27T06:54:12.440Z,59.57
2018-04-27T06:57:15.697Z,58.19
2018-04-27T07:00:18.975Z,59.42
2018-04-27T07:03:22.220Z,56.89
2018-04-27T07:06:25.506Z,57.23
2018-04-27T07:09:28.790Z,57.58
2018-04-27T07:12:32.821Z,59.83
2018-04-27T07:15:36.952Z,57.59
2018-04-27T07:18:40.219Z,56.54
2018-04-27T07:21:43.501Z,57.44
2018-04-27T07:24:46.769Z,58.26
2018-04-27T07:27:50.140Z,59.14
2018-04-27T07:30:53.410Z,57.15
2018-04-27T07:33:57.438Z,57.77
2018-04-27T07:37:01.575Z,55.32
2018-04-27T07:40:04.854Z,56.60
2018-04-27T07:43:09.005Z,57.60
2018-04-27T07:46:12.267Z,57.28
2018-04-27T07:49:16.294Z,57.85
2018-04-27T07:52:19.576Z,55.70
2018-04-27T07:55:23.917Z,55.77
2018-04-27T07:58:27.123Z,57.01
2018-04-27T08:01:30.391Z,56.86
2018-04-27T08:04:34.437Z,57.04
2018-04-27T08:07:37.687Z,56.34
2018-04-27T08:10:41.028Z,54.91
2018-04-27T08:13:44.283Z,53.99
2018-04-27T08:16:48.325Z,53.18
2018-04-27T08:19:51.602Z,54.64
2018-04-27T08:22:56.321Z,56.20
2018-04-27T08:25:59.607Z,54.52
2018-04-27T08:29:02.865Z,55.34
2018-04-27T08:32:06.129Z,55.15
2018-04-27T08:35:10.149Z,55.12
2018-04-27T08:38:14.177Z,54.92
2018-04-27T08:41:17.437Z,52.90
2018-04-27T08:44:20.763Z,51.36
2018-04-27T08:47:24.790Z,52.61
2018-04-27T08:50:28.104Z,53.52
2018-04-27T08:53:31.522Z,53.15
2018-04-27T08:56:34.792Z,55.43
2018-04-27T08:59:38.051Z,55.04
2018-04-27T09:02:41.341Z,51.12
2018-04-27T09:05:45.397Z,49.64
2018-04-27T09:08:48.654Z,49.88
2018-04-27T09:11:51.949Z,49.15
2018-04-27T09:14:55.228Z,50.82
2018-04-27T09:17:58.500Z,50.34
2018-04-27T09:21:01.768Z,49.88
2018-04-27T09:24:05.816Z,50.26
2018-04-27T09:27:09.189Z,49.80
2018-04-27T09:30:13.213Z,45.85
2018-04-27T09:33:17.236Z,47.09
2018-04-27T09:36:20.496Z,47.37
2018-04-27T09:39:23.754Z,45.25
2018-04-27T09:42:27.048Z,45.28
2018-04-27T09:45:30.310Z,44.90
2018-04-27T09:48:34.317Z,44.87
2018-04-27T09:51:38.348Z,45.20
2018-04-27T09:54:41.625Z,44.57
2018-04-27T09:57:45.665Z,46.50
2018-04-27T10:00:48.929Z,45.39
2018-04-27T10:03:52.181Z,46.22
2018-04-27T10:06:55.444Z,44.95
2018-04-27T10:09:59.504Z,45.39
2018-04-27T10:13:02.760Z,43.22
2018-04-27T10:16:06.051Z,44.04
2018-04-27T10:19:10.068Z,44.81
2018-04-27T10:22:14.117Z,44.18
2018-04-27T10:25:17.371Z,44.00
2018-04-27T10:28:21.405Z,44.72
2018-04-27T10:31:24.719Z,45.13
2018-04-27T10:34:27.983Z,45.32
2018-04-27T10:37:32.011Z,44.22
2018-04-27T10:40:35.280Z,46.36
2018-04-27T10:43:38.529Z,43.78
2018-04-27T10:46:41.804Z,42.65
2018-04-27T10:49:45.058Z,42.92
2018-04-27T10:52:48.329Z,44.45
2018-04-27T10:55:51.609Z,42.89
2018-04-27T10:58:54.882Z,43.64
2018-04-27T11:01:58.913Z,42.80
2018-04-27T11:05:02.173Z,44.05
2018-04-27T11:08:06.197Z,43.64
2018-04-27T11:11:10.248Z,43.89
2018-04-27T11:14:13.502Z,44.45
2018-04-27T11:17:16.768Z,44.64
2018-04-27T11:20:21.485Z,43.95
2018-04-27T11:23:24.772Z,45.28
2018-04-27T11:26:28.047Z,44.66
2018-04-27T11:29:32.110Z,44.98
2018-04-27T11:32:35.776Z,43.70
2018-04-27T11:35:39.844Z,44.97
2018-04-27T11:38:43.113Z,44.57
2018-04-27T11:41:46.587Z,44.08
2018-04-27T11:44:50.612Z,44.22
2018-04-27T11:47:54.002Z,46.23
2018-04-27T11:50:57.452Z,45.09
2018-04-27T11:54:00.712Z,44.78
2018-04-27T11:57:04.486Z,44.23
2018-04-27T12:00:07.794Z,44.66
2018-04-27T12:03:11.872Z,45.52
2018-04-27T12:06:15.127Z,45.21
2018-04-27T12:09:18.385Z,45.51
2018-04-27T12:12:21.654Z,44.87
2018-04-27T12:15:24.916Z,45.09
2018-04-27T12:18:28.178Z,45.42
2018-04-27T12:21:31.567Z,44.47
2018-04-27T12:24:34.892Z,45.42
2018-04-27T12:27:38.902Z,44.79
2018-04-27T12:30:42.922Z,45.29
2018-04-27T12:33:48.078Z,45.05
2018-04-27T12:36:51.711Z,44.67
2018-04-27T12:39:54.962Z,44.84
2018-04-27T12:42:58.325Z,45.35
2018-04-27T12:46:01.587Z,45.54
2018-04-27T12:49:05.618Z,43.86
2018-04-27T12:52:08.979Z,44.75
2018-04-27T12:55:12.351Z,44.46
2018-04-27T12:58:15.686Z,44.20
2018-04-27T13:01:19.943Z,45.40
2018-04-27T13:04:23.214Z,43.73
2018-04-27T13:07:27.261Z,43.86
2018-04-27T13:10:30.671Z,43.88
2018-04-27T13:13:33.937Z,43.16
2018-04-27T13:16:37.203Z,44.07
2018-04-27T13:19:40.450Z,43.30
2018-04-27T13:22:43.745Z,43.75
2018-04-27T13:25:47.037Z,43.42
2018-04-27T13:28:50.301Z,43.76
2018-04-27T13:31:54.341Z,43.36
2018-04-27T13:34:57.621Z,43.53
2018-04-27T13:38:01.761Z,44.12
2018-04-27T13:41:05.016Z,44.40
2018-04-27T13:44:09.554Z,42.82
2018-04-27T13:47:12.946Z,43.86
2018-04-27T13:50:17.005Z,42.67
2018-04-27T13:53:20.260Z,42.42
2018-04-27T13:56:23.513Z,42.27
2018-04-27T13:59:26.791Z,42.37
2018-04-27T14:02:30.044Z,42.36
2018-04-27T14:05:33.398Z,42.50
2018-04-27T14:08:36.613Z,43.15
2018-04-27T14:11:39.867Z,42.29
2018-04-27T14:14:43.926Z,41.95
2018-04-27T14:17:47.284Z,43.15
2018-04-27T14:20:50.558Z,42.35
2018-04-27T14:23:53.809Z,41.75
2018-04-27T14:26:57.098Z,41.68
2018-04-27T14:30:00.481Z,42.73
2018-04-27T14:33:04.566Z,41.76
2018-04-27T14:36:07.817Z,42.32
2018-04-27T14:39:11.254Z,42.95
2018-04-27T14:42:15.323Z,42.41
2018-04-27T14:45:18.610Z,43.11
2018-04-27T14:48:22.286Z,43.69
2018-04-27T14:51:25.546Z,43.29
2018-04-27T14:54:28.829Z,43.10
2018-04-27T14:57:32.140Z,42.43
2018-04-27T15:00:35.400Z,42.42
2018-04-27T15:03:39.453Z,42.68
2018-04-27T15:06:42.701Z,41.31
2018-04-27T15:09:46.732Z,42.98
2018-04-27T15:12:50.749Z,42.32
2018-04-27T15:15:54.037Z,43.32
2018-04-27T15:18:58.246Z,44.65
2018-04-27T15:22:02.265Z,42.02
2018-04-27T15:25:06.283Z,42.10
2018-04-27T15:28:10.333Z,42.26
2018-04-27T15:31:13.590Z,42.12
2018-04-27T15:34:17.649Z,42.99
2018-04-27T15:37:20.951Z,42.39
2018-04-27T15:40:24.212Z,41.88
2018-04-27T15:43:28.333Z,42.19
2018-04-27T15:46:32.486Z,42.86
2018-04-27T15:49:35.771Z,42.64
2018-04-27T15:52:39.220Z,42.37
2018-04-27T15:55:42.634Z,42.98
2018-04-27T15:58:46.718Z,43.01
2018-04-27T16:01:49.974Z,43.45
2018-04-27T16:04:53.257Z,43.77
2018-04-27T16:07:57.743Z,43.37
2018-04-27T16:11:01.145Z,42.65
2018-04-27T16:14:04.469Z,42.59
2018-04-27T16:17:07.708Z,43.19
2018-04-27T16:20:10.979Z,42.93
2018-04-27T16:23:15.005Z,43.19
2018-04-27T16:26:24.511Z,43.87
2018-04-27T16:29:27.796Z,43.02
2018-04-27T16:32:31.939Z,42.80
2018-04-27T16:35:35.961Z,43.77
2018-04-27T16:38:39.986Z,44.07
2018-04-27T16:41:43.281Z,44.57
2018-04-27T16:44:47.394Z,45.16
2018-04-27T16:47:51.539Z,45.47
2018-04-27T16:50:54.941Z,45.61
2018-04-27T16:53:59.209Z,45.81
2018-04-27T16:57:02.462Z,43.98
2018-04-27T17:00:05.716Z,40.68
2018-04-27T17:03:09.738Z,40.93
2018-04-27T17:06:13.755Z,40.39
2018-04-27T17:09:17.782Z,41.32
2018-04-27T17:12:21.029Z,42.78
2018-04-27T17:15:24.338Z,43.75
2018-04-27T17:18:27.595Z,45.10
2018-04-27T17:21:30.910Z,44.72
2018-04-27T17:24:34.174Z,45.42
2018-04-27T17:27:37.426Z,45.56
2018-04-27T17:30:40.683Z,46.67
2018-04-27T17:33:43.951Z,47.27
2018-04-27T17:36:48.021Z,47.61
2018-04-27T17:39:52.093Z,48.01
2018-04-27T17:42:55.298Z,48.40
2018-04-27T17:45:58.583Z,49.04
2018-04-27T17:49:01.863Z,49.05
2018-04-27T17:52:05.874Z,50.01
2018-04-27T17:55:09.899Z,51.80
2018-04-27T17:58:13.919Z,52.89
2018-04-27T18:01:17.939Z,53.67
2018-04-27T18:04:21.990Z,53.67
2018-04-27T18:07:25.377Z,54.76
2018-04-27T18:10:29.356Z,55.42
2018-04-27T18:13:33.468Z,56.15
2018-04-27T18:16:37.485Z,56.50
2018-04-27T18:19:40.736Z,57.37
2018-04-27T18:22:43.989Z,58.98
2018-04-27T18:25:48.015Z,58.81
2018-04-27T18:28:51.427Z,59.32
2018-04-27T18:31:54.681Z,60.28
2018-04-27T18:34:57.933Z,60.67
2018-04-27T18:38:01.193Z,61.73
2018-04-27T18:41:05.213Z,62.27
2018-04-27T18:44:09.240Z,62.78
2018-04-27T18:47:12.509Z,62.69
2018-04-27T18:50:16.550Z,62.82
2018-04-27T18:53:19.796Z,65.47
2018-04-27T18:56:23.051Z,65.68
2018-04-27T18:59:26.320Z,65.46
2018-04-27T19:02:30.339Z,65.95
2018-04-27T19:05:34.442Z,66.94
2018-04-27T19:08:37.755Z,65.89
2018-04-27T19:11:41.820Z,66.51
2018-04-27T19:14:45.096Z,66.27
2018-04-27T19:17:48.365Z,66.96
2018-04-27T19:20:52.526Z,67.49
2018-04-27T19:23:55.850Z,68.05
2018-04-27T19:26:59.181Z,67.80
2018-04-27T19:30:03.201Z,67.31
2018-04-27T19:33:07.282Z,67.21
2018-04-27T19:36:10.539Z,68.21
2018-04-27T19:39:13.818Z,67.05
2018-04-27T19:42:17.879Z,68.45
2018-04-27T19:45:21.166Z,68.06
2018-04-27T19:48:24.545Z,69.58
2018-04-27T19:51:27.868Z,69.54
2018-04-27T19:54:31.134Z,68.81
2018-04-27T19:57:35.313Z,68.62
2018-04-27T20:00:39.523Z,68.20
2018-04-27T20:03:42.770Z,68.03
2018-04-27T20:06:46.491Z,68.41
2018-04-27T20:09:52.747Z,69.18
2018-04-27T20:12:57.994Z,70.05
2018-04-27T20:16:01.257Z,70.03
2018-04-27T20:19:05.154Z,69.84
2018-04-27T20:22:17.707Z,70.20
2018-04-27T20:25:21.059Z,70.53
2018-04-27T20:28:25.219Z,70.44
2018-04-27T20:31:29.357Z,71.14
2018-04-27T20:34:32.608Z,71.56
2018-04-27T20:37:35.900Z,71.73
2018-04-27T20:40:39.210Z,71.39
2018-04-27T20:43:45.309Z,71.15
2018-04-27T20:46:48.613Z,71.56
2018-04-27T20:49:51.905Z,71.38
2018-04-27T20:52:59.555Z,71.89
2018-04-27T20:56:05.717Z,72.68
2018-04-27T20:59:08.981Z,72.50
2018-04-27T21:02:12.264Z,72.19
2018-04-27T21:05:16.295Z,72.79
2018-04-27T21:08:19.544Z,72.88
2018-04-27T21:11:26.242Z,73.54
2018-04-27T21:14:29.571Z,72.92
2018-04-27T21:17:32.841Z,72.79
2018-04-27T21:20:36.884Z,73.00
2018-04-27T21:23:40.163Z,73.15
2018-04-27T21:26:44.417Z,73.35
2018-04-27T21:29:47.694Z,73.00
2018-04-27T21:32:50.949Z,72.84
2018-04-27T21:35:57.774Z,73.40
2018-04-27T21:39:33.727Z,73.19
2018-04-27T21:42:36.995Z,73.03
2018-04-27T21:45:40.256Z,73.40
2018-04-27T21:48:44.252Z,73.09
2018-04-27T21:51:50.917Z,73.16
2018-04-27T21:54:54.657Z,73.10
2018-04-27T21:58:03.296Z,73.32
2018-04-27T22:01:06.818Z,73.82
2018-04-27T22:04:10.122Z,73.57
2018-04-27T22:07:19.925Z,73.27
2018-04-27T22:10:24.035Z,73.49
2018-04-27T22:13:29.032Z,73.01
2018-04-27T22:16:38.984Z,73.55
2018-04-27T22:19:44.099Z,73.08
2018-04-27T22:22:47.804Z,73.55
2018-04-27T22:25:53.894Z,73.26
2018-04-27T22:28:58.855Z,73.67
2018-04-27T22:32:11.719Z,73.62
2018-04-27T22:35:40.570Z,73.98
2018-04-27T22:38:45.706Z,73.72
2018-04-27T22:41:58.949Z,73.62
2018-04-27T22:45:14.861Z,73.34
2018-04-27T22:51:59.410Z,72.99
2018-04-27T22:55:04.170Z,72.48
2018-04-27T22:58:10.875Z,72.82
2018-04-27T23:01:14.154Z,73.22
2018-04-27T23:04:18.106Z,74.50
2018-04-27T23:07:25.675Z,73.50
2018-04-27T23:10:47.555Z,73.55
2018-04-27T23:17:21.081Z,74.15
2018-04-27T23:20:27.765Z,74.36
2018-04-27T23:23:32.104Z,74.95
2018-04-27T23:26:35.675Z,75.06
2018-04-27T23:29:39.020Z,75.22
2018-04-27T23:32:42.285Z,75.10
2018-04-27T23:35:48.733Z,74.71
2018-04-27T23:38:52.029Z,75.06
2018-04-27T23:41:56.127Z,76.00
2018-04-27T23:44:59.387Z,74.87
2018-04-27T23:48:02.691Z,75.24
2018-04-27T23:51:05.956Z,75.12
2018-04-27T23:54:09.985Z,75.61
2018-04-27T23:57:20.437Z,76.11
